createdAt,value
2019-02-15T00:00:10.794Z,4.44
2019-02-15T00:02:39.352Z,4.38
2019-02-15T00:05:07.136Z,4.36
2019-02-15T00:07:35.073Z,4.30
2019-02-15T00:10:03.140Z,4.27
2019-02-15T00:12:30.921Z,4.26
2019-02-15T00:14:58.799Z,4.19
2019-02-15T00:17:46.175Z,4.17
2019-02-15T00:20:19.834Z,4.14
2019-02-15T00:22:47.577Z,4.15
2019-02-15T00:25:15.355Z,4.11
2019-02-15T00:27:43.098Z,4.08
2019-02-15T00:30:11.594Z,4.10
2019-02-15T00:32:39.356Z,4.14
2019-02-15T00:35:07.254Z,4.18
2019-02-15T00:37:35.142Z,4.16
2019-02-15T00:40:03.112Z,4.16
2019-02-15T00:42:30.904Z,4.18
2019-02-15T00:44:58.664Z,4.17
2019-02-15T00:47:37.017Z,4.14
2019-02-15T00:50:42.938Z,4.08
2019-02-15T00:53:26.222Z,4.05
2019-02-15T00:56:22.552Z,4.03
2019-02-15T00:59:24.843Z,4.05
2019-02-15T01:02:06.123Z,4.02
2019-02-15T01:04:59.393Z,4.05
2019-02-15T01:07:37.186Z,4.03
2019-02-15T01:10:23.195Z,4.02
2019-02-15T01:12:58.273Z,3.99
2019-02-15T01:15:26.017Z,3.96
2019-02-15T01:17:53.779Z,4.03
2019-02-15T01:20:21.507Z,4.02
2019-02-15T01:22:49.453Z,4.02
2019-02-15T01:25:17.323Z,3.94
2019-02-15T01:28:16.624Z,4.05
2019-02-15T01:31:02.389Z,4.01
2019-02-15T01:33:55.839Z,3.96
2019-02-15T01:36:35.302Z,3.94
2019-02-15T01:39:19.107Z,3.91
2019-02-15T01:42:06.527Z,3.87
2019-02-15T01:44:40.476Z,3.87
2019-02-15T01:47:12.519Z,3.95
2019-02-15T01:49:40.483Z,3.84
2019-02-15T01:52:08.397Z,3.80
2019-02-15T01:54:36.324Z,3.83
2019-02-15T01:57:04.081Z,3.75
2019-02-15T01:59:32.009Z,3.73
2019-02-15T02:01:59.768Z,3.69
2019-02-15T02:04:27.717Z,3.66
2019-02-15T02:06:55.650Z,3.61
2019-02-15T02:09:23.595Z,3.62
2019-02-15T02:11:51.365Z,3.59
2019-02-15T02:14:19.320Z,3.50
2019-02-15T02:16:47.094Z,3.51
2019-02-15T02:19:14.962Z,3.46
2019-02-15T02:21:42.718Z,3.40
2019-02-15T02:24:10.703Z,3.44
2019-02-15T02:26:38.470Z,3.45
2019-02-15T02:29:06.390Z,3.51
2019-02-15T02:31:34.158Z,3.48
2019-02-15T02:34:02.061Z,3.50
2019-02-15T02:36:53.903Z,3.47
2019-02-15T02:39:22.177Z,3.44
2019-02-15T02:41:50.050Z,3.39
2019-02-15T02:44:20.895Z,3.41
2019-02-15T02:46:48.680Z,3.44
2019-02-15T02:49:16.718Z,3.42
2019-02-15T02:51:44.594Z,3.37
2019-02-15T02:54:12.417Z,3.25
2019-02-15T02:56:40.225Z,3.28
2019-02-15T02:59:08.276Z,3.29
2019-02-15T03:01:36.029Z,3.28
2019-02-15T03:04:03.973Z,3.29
2019-02-15T03:06:31.788Z,3.26
2019-02-15T03:08:59.748Z,3.27
2019-02-15T03:11:27.551Z,3.22
2019-02-15T03:13:55.335Z,3.18
2019-02-15T03:16:23.119Z,3.18
2019-02-15T03:18:50.920Z,3.25
2019-02-15T03:21:19.457Z,3.21
2019-02-15T03:23:47.490Z,3.18
2019-02-15T03:26:15.425Z,3.19
2019-02-15T03:28:43.193Z,3.15
2019-02-15T03:31:10.981Z,3.18
2019-02-15T03:33:38.752Z,3.17
2019-02-15T03:36:08.816Z,3.05
2019-02-15T03:38:50.573Z,2.99
2019-02-15T03:41:28.811Z,3.05
2019-02-15T03:43:57.370Z,3.11
2019-02-15T03:46:25.487Z,3.13
2019-02-15T03:48:53.439Z,3.08
2019-02-15T03:51:21.481Z,3.04
2019-02-15T03:53:49.241Z,3.05
2019-02-15T03:56:17.187Z,3.08
2019-02-15T03:58:45.280Z,3.04
2019-02-15T04:01:13.107Z,3.15
2019-02-15T04:03:42.673Z,3.13
2019-02-15T04:06:10.505Z,3.04
2019-02-15T04:08:38.265Z,2.97
2019-02-15T04:11:06.199Z,2.92
2019-02-15T04:13:34.001Z,2.95
2019-02-15T04:16:01.803Z,2.94
2019-02-15T04:18:29.584Z,2.92
2019-02-15T04:20:57.508Z,2.88
2019-02-15T04:23:25.261Z,2.93
2019-02-15T04:25:53.229Z,3.00
2019-02-15T04:28:21.033Z,2.99
2019-02-15T04:30:48.778Z,2.95
2019-02-15T04:33:16.536Z,2.90
2019-02-15T04:35:44.504Z,2.88
2019-02-15T04:38:12.238Z,2.94
2019-02-15T04:40:40.206Z,2.95
2019-02-15T04:43:07.996Z,2.95
2019-02-15T04:45:35.924Z,2.85
2019-02-15T04:48:03.698Z,2.75
2019-02-15T04:50:31.708Z,2.81
2019-02-15T04:52:59.450Z,2.76
2019-02-15T04:55:27.262Z,2.84
2019-02-15T04:57:55.053Z,2.84
2019-02-15T05:00:23.026Z,2.80
2019-02-15T05:02:50.792Z,2.79
2019-02-15T05:05:18.783Z,2.86
2019-02-15T05:07:46.555Z,2.76
2019-02-15T05:10:14.528Z,2.82
2019-02-15T05:12:42.286Z,2.88
2019-02-15T05:15:10.126Z,2.80
2019-02-15T05:17:38.037Z,2.90
2019-02-15T05:20:06.065Z,2.82
2019-02-15T05:22:34.084Z,2.78
2019-02-15T05:25:01.859Z,2.79
2019-02-15T05:27:29.586Z,2.76
2019-02-15T05:29:57.407Z,2.71
2019-02-15T05:32:25.174Z,2.77
2019-02-15T05:34:52.944Z,2.73
2019-02-15T05:37:20.931Z,2.76
2019-02-15T05:39:48.726Z,2.71
2019-02-15T05:42:16.497Z,2.68
2019-02-15T05:44:44.277Z,2.66
2019-02-15T05:47:12.055Z,2.60
2019-02-15T05:49:39.860Z,2.60
2019-02-15T05:52:07.636Z,2.60
2019-02-15T05:54:35.403Z,2.62
2019-02-15T05:57:03.436Z,2.62
2019-02-15T05:59:31.185Z,2.61
2019-02-15T06:01:58.980Z,2.63
2019-02-15T06:04:26.755Z,2.50
2019-02-15T06:06:54.562Z,2.55
2019-02-15T06:09:22.352Z,2.62
2019-02-15T06:11:50.113Z,2.57
2019-02-15T06:14:18.121Z,2.58
2019-02-15T06:16:45.911Z,2.72
2019-02-15T06:19:13.685Z,2.81
2019-02-15T06:21:41.442Z,2.84
2019-02-15T06:24:09.230Z,2.79
2019-02-15T06:26:37.037Z,2.78
2019-02-15T06:29:04.837Z,2.67
2019-02-15T06:31:32.680Z,2.69
2019-02-15T06:34:00.478Z,2.71
2019-02-15T06:36:32.804Z,2.72
2019-02-15T06:39:00.597Z,2.72
2019-02-15T06:41:31.046Z,2.79
2019-02-15T06:43:58.844Z,2.79
2019-02-15T06:46:26.633Z,2.78
2019-02-15T06:48:54.630Z,2.82
2019-02-15T06:51:22.425Z,2.73
2019-02-15T06:53:50.487Z,2.78
2019-02-15T06:56:18.299Z,2.84
2019-02-15T06:59:11.574Z,2.80
2019-02-15T07:01:44.752Z,2.88
2019-02-15T07:04:47.246Z,2.89
2019-02-15T07:07:15.003Z,2.91
2019-02-15T07:09:42.778Z,2.98
2019-02-15T07:12:10.738Z,3.03
2019-02-15T07:14:38.523Z,3.09
2019-02-15T07:17:06.459Z,3.12
2019-02-15T07:19:37.146Z,3.09
2019-02-15T07:22:04.910Z,3.13
2019-02-15T07:24:32.742Z,3.19
2019-02-15T07:27:00.667Z,3.28
2019-02-15T07:29:28.615Z,3.36
2019-02-15T07:31:56.381Z,3.33
2019-02-15T07:34:24.158Z,3.42
2019-02-15T07:36:52.127Z,3.49
2019-02-15T07:39:20.103Z,3.42
2019-02-15T07:41:48.049Z,3.44
2019-02-15T07:44:15.875Z,3.51
2019-02-15T07:46:43.667Z,3.57
2019-02-15T07:49:11.427Z,3.65
2019-02-15T07:51:39.195Z,3.73
2019-02-15T07:54:07.162Z,3.71
2019-02-15T07:56:34.923Z,3.94
2019-02-15T07:59:02.690Z,3.85
2019-02-15T08:01:30.493Z,3.86
2019-02-15T08:03:58.250Z,3.88
2019-02-15T08:06:26.039Z,3.98
2019-02-15T08:08:53.825Z,4.07
2019-02-15T08:11:21.621Z,4.17
2019-02-15T08:13:49.376Z,4.21
2019-02-15T08:16:17.167Z,4.29
2019-02-15T08:18:45.107Z,4.33
2019-02-15T08:21:13.322Z,4.50
2019-02-15T08:23:41.168Z,4.65
2019-02-15T08:26:08.985Z,4.74
2019-02-15T08:28:36.763Z,4.81
2019-02-15T08:31:04.662Z,4.81
2019-02-15T08:33:32.453Z,4.86
2019-02-15T08:36:00.276Z,4.86
2019-02-15T08:38:28.293Z,5.06
2019-02-15T08:40:56.246Z,5.10
2019-02-15T08:43:24.038Z,5.19
2019-02-15T08:46:00.363Z,5.31
2019-02-15T08:48:21.532Z,5.23
2019-02-15T08:50:49.360Z,5.32
2019-02-15T08:53:17.185Z,5.60
2019-02-15T08:55:44.952Z,5.61
2019-02-15T08:58:12.739Z,5.72
2019-02-15T09:00:40.704Z,5.78
2019-02-15T09:03:08.491Z,5.75
2019-02-15T09:05:36.397Z,5.77
2019-02-15T09:08:04.186Z,5.92
2019-02-15T09:10:31.967Z,5.98
2019-02-15T09:12:59.733Z,6.04
2019-02-15T09:15:27.811Z,6.00
2019-02-15T09:17:55.591Z,6.12
2019-02-15T09:20:23.385Z,6.16
2019-02-15T09:22:51.215Z,6.33
2019-02-15T09:25:21.027Z,7.20
2019-02-15T09:28:14.456Z,9.77
2019-02-15T09:30:43.929Z,12.39
2019-02-15T09:33:11.737Z,12.95
2019-02-15T09:35:39.553Z,12.00
2019-02-15T09:38:07.364Z,11.00
2019-02-15T09:40:35.116Z,10.02
2019-02-15T09:43:02.935Z,9.64
2019-02-15T09:45:30.720Z,9.36
2019-02-15T09:47:58.585Z,9.14
2019-02-15T09:50:26.449Z,8.73
2019-02-15T09:52:54.261Z,8.77
2019-02-15T09:55:22.079Z,8.93
2019-02-15T09:57:49.909Z,10.30
2019-02-15T10:00:17.641Z,13.17
2019-02-15T10:02:45.509Z,15.88
2019-02-15T10:05:13.310Z,17.50
2019-02-15T10:07:42.067Z,16.50
2019-02-15T10:10:09.886Z,15.88
2019-02-15T10:12:37.697Z,14.62
2019-02-15T10:15:05.735Z,13.68
2019-02-15T10:17:33.615Z,12.35
2019-02-15T10:20:01.403Z,12.04
2019-02-15T10:22:29.248Z,11.54
2019-02-15T10:24:57.010Z,11.11
2019-02-15T10:27:24.776Z,10.83
2019-02-15T10:29:52.598Z,11.05
2019-02-15T10:32:22.427Z,14.44
2019-02-15T10:34:50.348Z,19.16
2019-02-15T10:37:18.212Z,23.60
2019-02-15T10:39:46.053Z,26.29
2019-02-15T10:42:13.893Z,28.16
2019-02-15T10:44:41.720Z,29.30
2019-02-15T10:47:14.185Z,29.03
2019-02-15T10:49:41.666Z,26.14
2019-02-15T10:52:09.466Z,23.48
2019-02-15T10:54:37.256Z,21.04
2019-02-15T10:57:05.052Z,19.33
2019-02-15T10:59:32.878Z,20.73
2019-02-15T11:02:00.676Z,22.93
2019-02-15T11:04:28.508Z,25.36
2019-02-15T11:06:56.318Z,27.38
2019-02-15T11:09:24.140Z,28.72
2019-02-15T11:11:51.972Z,28.42
2019-02-15T11:14:19.842Z,25.54
2019-02-15T11:16:47.670Z,22.92
2019-02-15T11:19:15.488Z,20.30
2019-02-15T11:21:43.330Z,18.84
2019-02-15T11:24:11.233Z,17.66
2019-02-15T11:26:39.071Z,16.75
2019-02-15T11:29:06.865Z,16.04
2019-02-15T11:31:34.638Z,15.14
2019-02-15T11:34:02.529Z,14.58
2019-02-15T11:36:30.423Z,14.20
2019-02-15T11:38:58.671Z,13.98
2019-02-15T11:41:26.494Z,13.77
2019-02-15T11:43:54.301Z,13.61
2019-02-15T11:46:22.086Z,13.64
2019-02-15T11:48:49.961Z,14.60
2019-02-15T11:51:17.834Z,15.67
2019-02-15T11:53:45.760Z,16.63
2019-02-15T11:56:13.484Z,17.02
2019-02-15T11:58:41.424Z,17.15
2019-02-15T12:01:09.211Z,16.86
2019-02-15T12:03:37.052Z,16.29
2019-02-15T12:06:05.130Z,16.03
2019-02-15T12:08:32.843Z,15.46
2019-02-15T12:11:00.679Z,15.47
2019-02-15T12:13:28.435Z,15.43
2019-02-15T12:15:56.218Z,15.49
2019-02-15T12:18:24.011Z,15.97
2019-02-15T12:20:51.843Z,16.51
2019-02-15T12:23:19.644Z,17.18
2019-02-15T12:25:47.466Z,17.77
2019-02-15T12:28:15.252Z,18.44
2019-02-15T12:30:43.095Z,18.19
2019-02-15T12:33:10.944Z,17.45
2019-02-15T12:35:38.799Z,16.55
2019-02-15T12:38:06.574Z,16.02
2019-02-15T12:40:34.328Z,15.21
2019-02-15T12:43:02.135Z,14.92
2019-02-15T12:45:30.177Z,14.58
2019-02-15T12:47:57.968Z,14.57
2019-02-15T12:50:25.860Z,14.22
2019-02-15T12:52:53.901Z,14.13
2019-02-15T12:55:21.762Z,13.89
2019-02-15T12:57:49.600Z,13.88
2019-02-15T13:00:17.392Z,13.94
2019-02-15T13:02:45.178Z,13.87
2019-02-15T13:05:13.353Z,13.79
2019-02-15T13:07:41.134Z,13.71
2019-02-15T13:10:10.129Z,13.72
2019-02-15T13:12:37.926Z,13.69
2019-02-15T13:15:06.501Z,13.66
2019-02-15T13:17:34.284Z,13.61
2019-02-15T13:20:05.337Z,13.66
2019-02-15T13:22:33.255Z,13.60
2019-02-15T13:25:03.775Z,13.68
2019-02-15T13:27:31.615Z,13.75
2019-02-15T13:29:59.504Z,13.82
2019-02-15T13:32:27.292Z,13.80
2019-02-15T13:34:55.131Z,13.72
2019-02-15T13:37:22.937Z,13.70
2019-02-15T13:39:51.119Z,13.69
2019-02-15T13:42:18.977Z,13.80
2019-02-15T13:44:46.979Z,13.76
2019-02-15T13:47:14.770Z,13.93
2019-02-15T13:49:42.815Z,13.99
2019-02-15T13:52:10.587Z,13.74
2019-02-15T13:54:38.578Z,13.70
2019-02-15T13:57:06.531Z,13.93
2019-02-15T13:59:34.311Z,13.94
2019-02-15T14:02:02.073Z,13.88
2019-02-15T14:04:29.874Z,13.90
2019-02-15T14:06:57.721Z,13.85
2019-02-15T14:09:25.511Z,13.96
2019-02-15T14:11:53.301Z,13.99
2019-02-15T14:14:21.065Z,14.00
2019-02-15T14:16:48.899Z,14.11
2019-02-15T14:19:16.924Z,14.15
2019-02-15T14:21:44.878Z,14.30
2019-02-15T14:24:12.664Z,15.27
2019-02-15T14:26:40.450Z,17.13
2019-02-15T14:29:08.208Z,19.66
2019-02-15T14:31:35.919Z,22.08
2019-02-15T14:34:03.690Z,24.82
2019-02-15T14:36:31.440Z,26.93
2019-02-15T14:38:59.228Z,28.32
2019-02-15T14:41:26.986Z,28.86
2019-02-15T14:43:54.748Z,28.08
2019-02-15T14:46:22.790Z,28.71
2019-02-15T14:48:50.609Z,30.00
2019-02-15T14:51:18.342Z,30.07
2019-02-15T14:53:46.420Z,29.91
2019-02-15T14:56:14.211Z,29.72
2019-02-15T14:58:42.038Z,30.26
2019-02-15T15:01:09.785Z,30.39
2019-02-15T15:03:37.761Z,30.90
2019-02-15T15:06:05.500Z,30.66
2019-02-15T15:08:33.297Z,30.75
2019-02-15T15:11:02.038Z,30.80
2019-02-15T15:13:29.856Z,30.86
2019-02-15T15:15:57.853Z,30.90
2019-02-15T15:18:25.867Z,30.33
2019-02-15T15:20:53.688Z,29.85
2019-02-15T15:23:21.465Z,29.57
2019-02-15T15:25:49.247Z,29.20
2019-02-15T15:28:17.000Z,28.63
2019-02-15T15:30:44.782Z,27.94
2019-02-15T15:33:12.608Z,26.62
2019-02-15T15:35:40.434Z,25.55
2019-02-15T15:38:08.300Z,24.70
2019-02-15T15:40:36.033Z,23.61
2019-02-15T15:43:03.899Z,22.41
2019-02-15T15:45:31.676Z,21.38
2019-02-15T15:47:59.476Z,20.46
2019-02-15T15:50:27.289Z,19.54
2019-02-15T15:52:55.023Z,18.44
2019-02-15T15:55:22.856Z,17.49
2019-02-15T15:57:50.711Z,16.59
2019-02-15T16:00:18.533Z,15.97
2019-02-15T16:02:46.327Z,15.43
2019-02-15T16:05:14.170Z,15.04
2019-02-15T16:07:43.715Z,14.86
2019-02-15T16:10:11.793Z,14.45
2019-02-15T16:12:39.634Z,14.38
2019-02-15T16:15:08.723Z,14.04
2019-02-15T16:17:36.527Z,13.83
2019-02-15T16:20:05.139Z,13.72
2019-02-15T16:22:33.267Z,13.56
2019-02-15T16:25:01.046Z,13.42
2019-02-15T16:27:28.820Z,13.35
2019-02-15T16:29:56.637Z,13.21
2019-02-15T16:32:24.388Z,13.11
2019-02-15T16:34:52.188Z,13.03
2019-02-15T16:37:20.064Z,12.94
2019-02-15T16:39:47.865Z,12.72
2019-02-15T16:42:16.885Z,12.46
2019-02-15T16:44:47.207Z,12.27
2019-02-15T16:47:14.995Z,12.12
2019-02-15T16:49:42.846Z,11.95
2019-02-15T16:52:13.646Z,11.84
2019-02-15T16:54:41.427Z,11.73
2019-02-15T16:57:09.299Z,11.78
2019-02-15T16:59:37.149Z,11.81
2019-02-15T17:02:04.934Z,11.81
2019-02-15T17:04:32.703Z,11.53
2019-02-15T17:07:00.490Z,11.37
2019-02-15T17:09:28.265Z,11.25
2019-02-15T17:11:56.093Z,11.12
2019-02-15T17:14:23.851Z,10.99
2019-02-15T17:16:51.625Z,10.87
2019-02-15T17:19:19.412Z,10.81
2019-02-15T17:21:47.253Z,10.72
2019-02-15T17:24:15.006Z,10.66
2019-02-15T17:26:42.806Z,10.56
2019-02-15T17:29:10.607Z,10.50
2019-02-15T17:31:38.396Z,10.42
2019-02-15T17:34:06.182Z,10.39
2019-02-15T17:36:34.007Z,10.31
2019-02-15T17:39:01.770Z,10.20
2019-02-15T17:41:29.574Z,10.12
2019-02-15T17:43:57.335Z,10.05
2019-02-15T17:46:25.130Z,9.98
2019-02-15T17:49:00.578Z,9.94
2019-02-15T17:51:22.639Z,9.89
2019-02-15T17:53:50.749Z,9.95
2019-02-15T17:56:18.561Z,10.04
2019-02-15T17:58:46.393Z,10.16
2019-02-15T18:01:14.195Z,10.27
2019-02-15T18:03:42.008Z,10.36
2019-02-15T18:06:09.786Z,10.35
2019-02-15T18:08:37.607Z,10.26
2019-02-15T18:11:05.372Z,10.12
2019-02-15T18:13:33.157Z,10.07
2019-02-15T18:16:01.739Z,10.00
2019-02-15T18:18:29.526Z,9.85
2019-02-15T18:20:57.348Z,9.73
2019-02-15T18:23:27.280Z,9.67
2019-02-15T18:25:55.052Z,9.54
2019-02-15T18:28:22.893Z,9.53
2019-02-15T18:30:50.685Z,9.47
2019-02-15T18:33:18.487Z,9.48
2019-02-15T18:35:46.278Z,9.42
2019-02-15T18:38:14.071Z,9.31
2019-02-15T18:40:41.815Z,9.40
2019-02-15T18:43:09.613Z,9.52
2019-02-15T18:45:37.374Z,9.48
2019-02-15T18:48:05.166Z,9.45
2019-02-15T18:50:32.932Z,9.39
2019-02-15T18:53:00.832Z,9.37
2019-02-15T18:55:28.600Z,9.28
2019-02-15T18:57:56.386Z,9.13
2019-02-15T19:00:24.188Z,8.73
2019-02-15T19:02:51.967Z,8.71
2019-02-15T19:05:19.721Z,8.67
2019-02-15T19:07:47.544Z,8.58
2019-02-15T19:10:16.757Z,8.50
2019-02-15T19:12:44.528Z,8.33
2019-02-15T19:15:13.297Z,8.27
2019-02-15T19:17:41.045Z,8.17
2019-02-15T19:20:09.793Z,8.13
2019-02-15T19:22:37.669Z,8.07
2019-02-15T19:25:07.233Z,8.01
2019-02-15T19:27:35.005Z,7.87
2019-02-15T19:30:04.985Z,7.87
2019-02-15T19:32:32.769Z,7.91
2019-02-15T19:35:00.569Z,7.84
2019-02-15T19:37:28.352Z,7.69
2019-02-15T19:39:56.243Z,7.58
2019-02-15T19:42:24.237Z,7.57
2019-02-15T19:44:52.050Z,7.43
2019-02-15T19:47:21.028Z,7.46
2019-02-15T19:49:48.923Z,7.49
2019-02-15T19:52:16.691Z,7.48
2019-02-15T19:54:44.806Z,7.44
2019-02-15T19:57:12.585Z,7.37
2019-02-15T19:59:40.619Z,7.37
2019-02-15T20:02:08.405Z,7.38
2019-02-15T20:04:36.284Z,7.32
2019-02-15T20:07:04.334Z,7.28
2019-02-15T20:09:32.059Z,7.24
2019-02-15T20:11:59.837Z,7.05
2019-02-15T20:14:27.605Z,7.03
2019-02-15T20:16:55.431Z,7.06
2019-02-15T20:19:23.216Z,7.08
2019-02-15T20:21:51.042Z,7.04
2019-02-15T20:24:18.880Z,7.00
2019-02-15T20:26:46.707Z,6.99
2019-02-15T20:29:14.631Z,6.96
2019-02-15T20:31:42.562Z,7.12
2019-02-15T20:34:10.311Z,7.13
2019-02-15T20:36:38.106Z,7.09
2019-02-15T20:39:05.903Z,7.15
2019-02-15T20:41:33.693Z,7.23
2019-02-15T20:44:01.535Z,7.23
2019-02-15T20:46:30.227Z,7.21
2019-02-15T20:49:04.728Z,7.08
2019-02-15T20:51:27.685Z,6.99
2019-02-15T20:53:55.482Z,7.02
2019-02-15T20:56:23.293Z,7.06
2019-02-15T20:58:51.111Z,7.08
2019-02-15T21:01:18.912Z,7.14
2019-02-15T21:03:46.686Z,7.20
2019-02-15T21:06:14.789Z,7.06
2019-02-15T21:08:42.554Z,6.97
2019-02-15T21:11:10.423Z,6.99
2019-02-15T21:13:38.264Z,7.05
2019-02-15T21:16:06.081Z,6.98
2019-02-15T21:18:33.902Z,6.82
2019-02-15T21:21:01.719Z,6.65
2019-02-15T21:23:29.574Z,6.55
2019-02-15T21:25:57.411Z,6.58
2019-02-15T21:28:25.250Z,6.57
2019-02-15T21:30:53.045Z,6.55
2019-02-15T21:33:20.818Z,6.60
2019-02-15T21:35:48.668Z,6.51
2019-02-15T21:38:16.432Z,6.54
2019-02-15T21:40:44.285Z,6.46
2019-02-15T21:43:12.082Z,6.40
2019-02-15T21:45:39.892Z,6.41
2019-02-15T21:48:07.705Z,6.20
2019-02-15T21:50:35.483Z,6.25
2019-02-15T21:53:03.251Z,6.22
2019-02-15T21:55:31.049Z,6.04
2019-02-15T21:58:01.613Z,6.12
2019-02-15T22:00:28.673Z,6.20
2019-02-15T22:02:56.472Z,6.19
2019-02-15T22:05:24.273Z,6.09
2019-02-15T22:07:52.096Z,6.06
2019-02-15T22:10:19.898Z,5.97
2019-02-15T22:12:47.718Z,5.90
2019-02-15T22:15:15.529Z,5.89
2019-02-15T22:17:43.305Z,5.87
2019-02-15T22:20:11.806Z,6.08
2019-02-15T22:22:39.602Z,6.17
2019-02-15T22:25:07.577Z,6.18
2019-02-15T22:27:35.381Z,6.25
2019-02-15T22:30:04.588Z,6.17
2019-02-15T22:32:32.649Z,6.18
2019-02-15T22:35:07.864Z,6.23
2019-02-15T22:37:35.755Z,6.01
2019-02-15T22:40:27.044Z,5.94
2019-02-15T22:42:55.080Z,5.94
2019-02-15T22:45:22.820Z,5.87
2019-02-15T22:47:50.571Z,5.88
2019-02-15T22:50:18.399Z,5.91
2019-02-15T22:52:46.157Z,5.93
2019-02-15T22:55:13.914Z,5.94
2019-02-15T22:57:41.706Z,5.74
2019-02-15T23:00:23.095Z,5.83
2019-02-15T23:02:50.835Z,5.95
2019-02-15T23:05:18.574Z,6.05
2019-02-15T23:07:46.542Z,6.51
2019-02-15T23:10:14.536Z,6.73
2019-02-15T23:12:42.274Z,6.61
2019-02-15T23:15:10.252Z,6.59
2019-02-15T23:17:38.232Z,6.50
2019-02-15T23:20:06.054Z,6.60
2019-02-15T23:22:33.985Z,6.64
2019-02-15T23:25:01.763Z,6.68
2019-02-15T23:27:29.487Z,6.64
2019-02-15T23:29:57.278Z,6.56
2019-02-15T23:32:25.210Z,6.41
2019-02-15T23:34:53.019Z,6.41
2019-02-15T23:37:20.974Z,6.36
2019-02-15T23:39:48.792Z,6.44
2019-02-15T23:42:16.550Z,6.76
2019-02-15T23:44:44.293Z,6.82
2019-02-15T23:47:12.037Z,6.88
2019-02-15T23:49:39.776Z,6.75
2019-02-15T23:52:07.487Z,6.71
2019-02-15T23:54:35.314Z,6.76
2019-02-15T23:57:03.211Z,6.70
2019-02-15T23:59:31.004Z,6.64
